createdAt,value
2022-10-10T00:01:43.853Z,11.80
2022-10-10T00:04:13.744Z,11.90
2022-10-10T00:06:42.264Z,11.90
2022-10-10T00:09:10.927Z,11.90
2022-10-10T00:11:39.480Z,11.90
2022-10-10T00:14:08.399Z,11.80
2022-10-10T00:16:37.032Z,11.80
2022-10-10T00:19:05.664Z,11.90
2022-10-10T00:21:35.692Z,11.90
2022-10-10T00:24:04.423Z,11.80
2022-10-10T00:26:33.032Z,11.80
2022-10-10T00:29:01.598Z,11.70
2022-10-10T00:31:30.278Z,11.80
2022-10-10T00:33:59.789Z,11.70
2022-10-10T00:36:28.394Z,11.70
2022-10-10T00:38:58.297Z,11.70
2022-10-10T00:41:27.024Z,11.80
2022-10-10T00:44:11.559Z,11.80
2022-10-10T00:46:41.044Z,11.80
2022-10-10T00:49:16.583Z,11.90
2022-10-10T00:51:48.847Z,11.90
2022-10-10T00:54:23.212Z,12.00
2022-10-10T00:56:58.161Z,11.90
2022-10-10T00:59:28.236Z,12.00
2022-10-10T01:01:56.751Z,12.00
2022-10-10T01:04:42.954Z,12.00
2022-10-10T01:07:19.046Z,12.00
2022-10-10T01:09:51.364Z,12.00
2022-10-10T01:12:33.598Z,12.10
2022-10-10T01:15:12.530Z,12.00
2022-10-10T01:17:48.869Z,12.00
2022-10-10T01:21:05.687Z,12.00
2022-10-10T01:24:09.923Z,11.80
2022-10-10T01:27:26.472Z,11.70
2022-10-10T01:30:07.273Z,11.70
2022-10-10T01:32:44.136Z,11.80
2022-10-10T01:35:33.770Z,11.90
2022-10-10T01:38:15.441Z,12.00
2022-10-10T01:40:51.071Z,12.00
2022-10-10T01:43:20.790Z,12.00
2022-10-10T01:45:54.170Z,11.90
2022-10-10T01:48:32.028Z,12.00
2022-10-10T01:51:26.799Z,12.00
2022-10-10T01:54:12.977Z,11.90
2022-10-10T01:56:49.640Z,11.80
2022-10-10T01:59:42.273Z,11.70
2022-10-10T02:02:24.690Z,11.80
2022-10-10T02:05:00.056Z,11.80
2022-10-10T02:07:34.595Z,11.70
2022-10-10T02:10:08.204Z,11.70
2022-10-10T02:12:38.495Z,11.80
2022-10-10T02:15:13.564Z,11.60
2022-10-10T02:17:47.842Z,11.60
2022-10-10T02:20:20.865Z,11.70
2022-10-10T02:22:53.128Z,11.70
2022-10-10T02:25:30.028Z,11.70
2022-10-10T02:28:10.909Z,11.60
2022-10-10T02:30:45.933Z,11.60
2022-10-10T02:33:21.857Z,11.50
2022-10-10T02:35:54.633Z,11.40
2022-10-10T02:38:23.753Z,11.30
2022-10-10T02:40:53.988Z,11.50
2022-10-10T02:43:23.708Z,11.60
2022-10-10T02:45:52.413Z,11.50
2022-10-10T02:48:22.623Z,11.40
2022-10-10T02:50:51.311Z,11.40
2022-10-10T02:53:19.954Z,11.40
2022-10-10T02:55:48.746Z,11.40
2022-10-10T02:58:17.401Z,11.50
2022-10-10T03:00:46.369Z,11.40
2022-10-10T03:03:14.937Z,11.30
2022-10-10T03:05:46.975Z,11.30
2022-10-10T03:08:15.705Z,11.30
2022-10-10T03:10:54.955Z,11.20
2022-10-10T03:13:23.998Z,11.30
2022-10-10T03:15:52.727Z,11.50
2022-10-10T03:18:22.381Z,11.50
2022-10-10T03:20:56.126Z,11.50
2022-10-10T03:23:25.533Z,11.50
2022-10-10T03:25:54.477Z,11.40
2022-10-10T03:28:23.591Z,11.40
2022-10-10T03:30:52.164Z,11.50
2022-10-10T03:33:20.798Z,11.50
2022-10-10T03:35:49.549Z,11.40
2022-10-10T03:38:19.460Z,11.50
2022-10-10T03:40:48.173Z,11.50
2022-10-10T03:43:17.049Z,11.50
2022-10-10T03:45:47.727Z,11.40
2022-10-10T03:48:16.733Z,11.40
2022-10-10T03:50:45.729Z,11.40
2022-10-10T03:53:14.442Z,11.40
2022-10-10T03:55:44.917Z,11.30
2022-10-10T03:58:18.914Z,11.30
2022-10-10T04:00:56.312Z,11.30
2022-10-10T04:03:25.372Z,11.40
2022-10-10T04:05:54.441Z,11.40
2022-10-10T04:08:23.573Z,11.40
2022-10-10T04:10:55.320Z,11.40
2022-10-10T04:13:27.599Z,11.40
2022-10-10T04:15:58.085Z,11.20
2022-10-10T04:18:27.165Z,11.00
2022-10-10T04:20:55.706Z,11.10
2022-10-10T04:23:24.702Z,11.20
2022-10-10T04:25:54.866Z,11.10
2022-10-10T04:28:23.659Z,11.10
2022-10-10T04:30:52.459Z,11.10
2022-10-10T04:33:21.082Z,11.00
2022-10-10T04:35:50.818Z,11.10
2022-10-10T04:38:21.407Z,11.20
2022-10-10T04:40:51.007Z,11.40
2022-10-10T04:43:21.345Z,11.50
2022-10-10T04:45:49.941Z,11.40
2022-10-10T04:48:18.547Z,11.40
2022-10-10T04:50:53.769Z,11.50
2022-10-10T04:53:23.179Z,11.40
2022-10-10T04:55:52.048Z,11.40
2022-10-10T04:58:22.274Z,11.50
2022-10-10T05:00:53.908Z,11.50
2022-10-10T05:03:23.386Z,11.60
2022-10-10T05:05:52.234Z,11.50
2022-10-10T05:08:21.560Z,11.60
2022-10-10T05:10:52.992Z,11.50
2022-10-10T05:13:22.987Z,11.60
2022-10-10T05:15:53.341Z,11.70
2022-10-10T05:18:22.464Z,11.50
2022-10-10T05:20:51.044Z,11.50
2022-10-10T05:23:19.848Z,11.60
2022-10-10T05:25:51.668Z,11.60
2022-10-10T05:28:20.430Z,11.60
2022-10-10T05:30:52.254Z,11.30
2022-10-10T05:33:20.902Z,11.40
2022-10-10T05:35:49.724Z,11.40
2022-10-10T05:38:18.329Z,11.50
2022-10-10T05:40:46.938Z,11.10
2022-10-10T05:43:15.472Z,11.10
2022-10-10T05:45:44.654Z,11.10
2022-10-10T05:48:14.673Z,11.30
2022-10-10T05:50:50.167Z,11.60
2022-10-10T05:53:18.845Z,11.70
2022-10-10T05:55:47.327Z,11.70
2022-10-10T05:58:16.468Z,11.50
2022-10-10T06:00:47.153Z,11.50
2022-10-10T06:03:17.984Z,11.60
2022-10-10T06:05:48.874Z,11.50
2022-10-10T06:08:17.421Z,11.60
2022-10-10T06:10:47.931Z,11.50
2022-10-10T06:13:24.099Z,11.50
2022-10-10T06:15:53.594Z,11.30
2022-10-10T06:18:23.631Z,11.30
2022-10-10T06:20:52.191Z,11.40
2022-10-10T06:23:20.832Z,11.40
2022-10-10T06:25:52.601Z,11.40
2022-10-10T06:28:21.607Z,11.50
2022-10-10T06:30:50.619Z,11.50
2022-10-10T06:33:19.907Z,11.60
2022-10-10T06:35:50.817Z,11.60
2022-10-10T06:38:19.657Z,11.60
2022-10-10T06:40:48.447Z,11.50
2022-10-10T06:43:18.396Z,11.50
2022-10-10T06:45:51.703Z,11.30
2022-10-10T06:48:20.313Z,11.30
2022-10-10T06:51:00.510Z,11.40
2022-10-10T06:53:29.602Z,11.50
2022-10-10T06:55:59.207Z,11.40
2022-10-10T06:58:29.941Z,11.30
2022-10-10T07:01:01.677Z,11.50
2022-10-10T07:03:31.815Z,11.50
2022-10-10T07:06:04.209Z,11.60
2022-10-10T07:08:33.104Z,11.60
2022-10-10T07:11:02.189Z,11.60
2022-10-10T07:13:31.013Z,11.50
2022-10-10T07:15:59.618Z,11.60
2022-10-10T07:18:28.618Z,11.60
2022-10-10T07:20:59.076Z,11.60
2022-10-10T07:23:31.316Z,11.60
2022-10-10T07:26:05.384Z,11.60
2022-10-10T07:28:34.129Z,11.80
2022-10-10T07:31:06.015Z,11.70
2022-10-10T07:33:36.646Z,11.70
2022-10-10T07:36:05.742Z,11.80
2022-10-10T07:38:36.794Z,11.70
2022-10-10T07:41:07.650Z,11.80
2022-10-10T07:43:37.444Z,11.70
2022-10-10T07:46:09.632Z,11.60
2022-10-10T07:48:40.168Z,11.60
2022-10-10T07:51:09.520Z,11.80
2022-10-10T07:53:40.885Z,11.70
2022-10-10T07:56:11.279Z,11.70
2022-10-10T07:58:40.316Z,11.90
2022-10-10T08:01:11.666Z,12.00
2022-10-10T08:03:41.499Z,12.10
2022-10-10T08:06:13.381Z,12.00
2022-10-10T08:08:50.825Z,11.90
2022-10-10T08:11:23.502Z,11.90
2022-10-10T08:13:52.697Z,12.10
2022-10-10T08:16:21.741Z,12.00
2022-10-10T08:18:50.331Z,12.10
2022-10-10T08:21:19.883Z,12.10
2022-10-10T08:23:49.868Z,12.20
2022-10-10T08:26:21.044Z,11.90
2022-10-10T08:28:49.835Z,12.00
2022-10-10T08:31:21.196Z,11.90
2022-10-10T08:33:52.831Z,12.00
2022-10-10T08:36:25.123Z,12.20
2022-10-10T08:38:59.426Z,12.10
2022-10-10T08:41:41.505Z,11.90
2022-10-10T08:44:20.848Z,11.80
2022-10-10T08:46:54.945Z,12.00
2022-10-10T08:49:31.012Z,12.20
2022-10-10T08:52:09.837Z,12.00
2022-10-10T08:54:44.003Z,12.10
2022-10-10T08:57:25.930Z,12.20
2022-10-10T09:00:00.006Z,12.30
2022-10-10T09:02:55.571Z,12.20
2022-10-10T09:05:47.957Z,12.30
2022-10-10T09:08:37.124Z,12.30
2022-10-10T09:11:22.404Z,12.50
2022-10-10T09:14:10.439Z,12.40
2022-10-10T09:16:49.589Z,12.50
2022-10-10T09:19:35.126Z,12.40
2022-10-10T09:22:13.264Z,12.50
2022-10-10T09:24:49.026Z,12.70
2022-10-10T09:27:28.533Z,12.90
2022-10-10T09:30:04.423Z,13.10
2022-10-10T09:32:41.592Z,13.20
2022-10-10T09:35:20.227Z,13.40
2022-10-10T09:37:52.252Z,13.60
2022-10-10T09:40:28.569Z,13.80
2022-10-10T09:42:58.888Z,14.10
2022-10-10T09:45:37.293Z,14.10
2022-10-10T09:48:06.404Z,14.30
2022-10-10T09:50:36.571Z,14.50
2022-10-10T09:53:06.732Z,14.70
2022-10-10T09:55:38.370Z,14.70
2022-10-10T09:58:21.865Z,14.90
2022-10-10T10:00:50.621Z,14.90
2022-10-10T10:03:23.015Z,15.00
2022-10-10T10:06:02.007Z,15.10
2022-10-10T10:08:33.484Z,15.30
2022-10-10T10:11:04.573Z,15.80
2022-10-10T10:13:37.745Z,15.90
2022-10-10T10:16:10.962Z,15.80
2022-10-10T10:18:44.254Z,15.70
2022-10-10T10:21:23.568Z,15.70
2022-10-10T10:23:57.234Z,15.70
2022-10-10T10:26:30.670Z,15.80
2022-10-10T10:29:00.749Z,15.80
2022-10-10T10:31:54.568Z,15.80
2022-10-10T10:35:02.343Z,15.80
2022-10-10T10:37:50.888Z,15.70
2022-10-10T10:40:30.998Z,15.60
2022-10-10T10:43:39.618Z,15.80
2022-10-10T10:46:20.961Z,15.90
2022-10-10T10:49:02.215Z,16.00
2022-10-10T10:51:51.676Z,16.20
2022-10-10T10:54:41.219Z,16.20
2022-10-10T10:57:40.823Z,16.30
2022-10-10T11:00:21.848Z,16.50
2022-10-10T11:03:38.450Z,16.60
2022-10-10T11:06:25.166Z,16.90
2022-10-10T11:09:31.022Z,17.30
2022-10-10T11:12:17.227Z,17.50
2022-10-10T11:14:58.942Z,17.60
2022-10-10T11:17:37.261Z,17.70
2022-10-10T11:20:21.253Z,17.50
2022-10-10T11:22:57.246Z,17.50
2022-10-10T11:25:33.392Z,17.60
2022-10-10T11:28:09.599Z,17.50
2022-10-10T11:30:46.104Z,17.40
2022-10-10T11:33:21.080Z,17.40
2022-10-10T11:36:01.565Z,17.40
2022-10-10T11:38:44.753Z,17.60
2022-10-10T11:41:19.375Z,17.70
2022-10-10T11:43:55.222Z,17.90
2022-10-10T11:46:34.143Z,17.90
2022-10-10T11:49:11.019Z,17.60
2022-10-10T11:52:31.985Z,17.50
2022-10-10T11:55:02.930Z,17.50
2022-10-10T11:57:40.905Z,17.40
2022-10-10T12:00:16.342Z,17.40
2022-10-10T12:02:47.222Z,17.30
2022-10-10T12:05:24.594Z,17.50
2022-10-10T12:08:17.864Z,17.60
2022-10-10T12:10:55.653Z,17.60
2022-10-10T12:13:34.256Z,17.60
2022-10-10T12:16:08.506Z,17.60
2022-10-10T12:18:45.304Z,17.50
2022-10-10T12:21:17.278Z,17.50
2022-10-10T12:23:51.173Z,17.40
2022-10-10T12:26:24.430Z,17.30
2022-10-10T12:29:06.737Z,17.20
2022-10-10T12:31:38.533Z,17.10
2022-10-10T12:34:38.936Z,17.10
2022-10-10T12:37:26.460Z,17.10
2022-10-10T12:40:22.255Z,17.20
2022-10-10T12:43:25.652Z,17.20
2022-10-10T12:46:09.717Z,17.20
2022-10-10T12:48:38.941Z,17.30
2022-10-10T12:51:18.250Z,17.50
2022-10-10T12:53:56.265Z,17.60
2022-10-10T12:56:43.960Z,17.60
2022-10-10T12:59:24.738Z,17.60
2022-10-10T13:01:58.430Z,17.60
2022-10-10T13:04:28.477Z,17.50
2022-10-10T13:07:01.155Z,17.50
2022-10-10T13:09:36.021Z,17.40
2022-10-10T13:12:21.887Z,17.50
2022-10-10T13:14:50.535Z,17.40
2022-10-10T13:17:31.990Z,17.40
2022-10-10T13:20:02.561Z,17.50
2022-10-10T13:22:33.639Z,17.50
2022-10-10T13:25:05.412Z,17.50
2022-10-10T13:27:36.330Z,17.60
2022-10-10T13:30:08.920Z,17.70
2022-10-10T13:32:37.909Z,17.70
2022-10-10T13:35:16.116Z,17.80
2022-10-10T13:37:46.305Z,17.80
2022-10-10T13:40:18.088Z,17.90
2022-10-10T13:42:50.052Z,17.90
2022-10-10T13:45:38.820Z,17.90
2022-10-10T13:48:41.506Z,17.90
2022-10-10T13:51:13.139Z,17.80
2022-10-10T13:53:52.059Z,17.80
2022-10-10T13:56:32.106Z,17.80
2022-10-10T13:59:13.259Z,17.80
2022-10-10T14:01:44.455Z,17.90
2022-10-10T14:04:21.761Z,17.90
2022-10-10T14:06:59.970Z,17.90
2022-10-10T14:09:41.655Z,17.90
2022-10-10T14:12:20.372Z,17.90
2022-10-10T14:14:53.017Z,17.90
2022-10-10T14:17:22.277Z,18.00
2022-10-10T14:19:51.977Z,18.00
2022-10-10T14:22:21.390Z,18.00
2022-10-10T14:24:50.804Z,18.10
2022-10-10T14:27:27.040Z,18.20
2022-10-10T14:29:59.241Z,18.20
2022-10-10T14:32:28.088Z,18.20
2022-10-10T14:34:56.719Z,18.10
2022-10-10T14:37:28.423Z,18.10
2022-10-10T14:39:57.864Z,18.20
2022-10-10T14:42:27.787Z,18.10
2022-10-10T14:44:57.751Z,18.10
2022-10-10T14:47:26.892Z,18.20
2022-10-10T14:49:57.423Z,18.20
2022-10-10T14:52:26.231Z,18.20
2022-10-10T14:54:54.867Z,18.10
2022-10-10T14:57:23.542Z,18.00
2022-10-10T14:59:52.235Z,18.00
2022-10-10T15:02:23.875Z,17.90
2022-10-10T15:04:52.983Z,17.90
2022-10-10T15:07:21.689Z,17.90
2022-10-10T15:12:42.827Z,17.90
2022-10-10T15:15:13.873Z,17.90
2022-10-10T15:17:44.317Z,17.80
2022-10-10T15:20:14.727Z,17.80
2022-10-10T15:22:46.115Z,17.80
2022-10-10T15:25:14.840Z,17.70
2022-10-10T15:27:43.505Z,17.70
2022-10-10T15:30:12.959Z,17.70
2022-10-10T15:32:43.809Z,17.60
2022-10-10T15:35:17.372Z,17.60
2022-10-10T15:37:46.768Z,17.50
2022-10-10T15:40:20.726Z,17.50
2022-10-10T15:42:50.853Z,17.50
2022-10-10T15:45:37.395Z,17.40
2022-10-10T15:48:10.699Z,17.40
2022-10-10T15:50:43.683Z,17.30
2022-10-10T15:53:12.636Z,17.30
2022-10-10T15:55:43.838Z,17.30
2022-10-10T15:58:13.146Z,17.30
2022-10-10T16:00:43.308Z,17.30
2022-10-10T16:03:13.888Z,17.20
2022-10-10T16:05:43.840Z,17.20
2022-10-10T16:08:13.548Z,17.20
2022-10-10T16:10:44.814Z,17.10
2022-10-10T16:13:14.115Z,17.10
2022-10-10T16:15:42.692Z,17.10
2022-10-10T16:18:13.129Z,17.10
2022-10-10T16:20:41.745Z,17.10
2022-10-10T16:23:10.438Z,17.10
2022-10-10T16:25:39.023Z,17.00
2022-10-10T16:28:07.721Z,17.00
2022-10-10T16:30:36.440Z,17.00
2022-10-10T16:33:05.260Z,17.00
2022-10-10T16:35:39.032Z,17.00
2022-10-10T16:38:07.572Z,17.00
2022-10-10T16:40:37.223Z,16.90
2022-10-10T16:43:06.618Z,16.90
2022-10-10T16:45:42.884Z,16.90
2022-10-10T16:48:11.984Z,16.60
2022-10-10T16:50:43.343Z,16.60
2022-10-10T16:53:12.351Z,16.60
2022-10-10T16:55:42.079Z,16.60
2022-10-10T16:58:11.426Z,16.60
2022-10-10T17:00:43.831Z,16.60
2022-10-10T17:03:12.502Z,16.60
2022-10-10T17:05:43.377Z,16.50
2022-10-10T17:08:11.969Z,16.40
2022-10-10T17:10:40.770Z,16.30
2022-10-10T17:13:09.327Z,16.20
2022-10-10T17:15:43.224Z,16.10
2022-10-10T17:18:11.805Z,16.00
2022-10-10T17:20:44.159Z,15.80
2022-10-10T17:23:13.617Z,15.70
2022-10-10T17:25:43.225Z,15.70
2022-10-10T17:28:12.680Z,15.60
2022-10-10T17:30:45.630Z,15.60
2022-10-10T17:33:16.846Z,15.50
2022-10-10T17:35:50.598Z,15.40
2022-10-10T17:38:38.434Z,15.30
2022-10-10T17:41:09.670Z,15.40
2022-10-10T17:43:38.797Z,15.50
2022-10-10T17:46:33.167Z,15.40
2022-10-10T17:48:59.033Z,15.30
2022-10-10T17:51:29.066Z,15.20
2022-10-10T17:54:00.980Z,15.10
2022-10-10T17:56:30.243Z,15.10
2022-10-10T17:59:01.494Z,15.10
2022-10-10T18:01:31.402Z,15.10
2022-10-10T18:04:00.474Z,15.10
2022-10-10T18:06:31.820Z,14.90
2022-10-10T18:09:01.257Z,14.90
2022-10-10T18:11:32.763Z,14.90
2022-10-10T18:14:01.444Z,14.90
2022-10-10T18:16:33.968Z,14.80
2022-10-10T18:19:04.131Z,14.70
2022-10-10T18:21:34.971Z,14.70
2022-10-10T18:24:03.700Z,14.60
2022-10-10T18:26:35.027Z,14.60
2022-10-10T18:29:03.657Z,14.50
2022-10-10T18:31:35.069Z,14.50
2022-10-10T18:34:05.366Z,14.30
2022-10-10T18:36:39.301Z,14.40
2022-10-10T18:39:12.789Z,14.30
2022-10-10T18:41:41.808Z,14.30
2022-10-10T18:44:16.734Z,14.30
2022-10-10T18:46:46.327Z,14.30
2022-10-10T18:49:15.378Z,14.30
2022-10-10T18:51:45.858Z,14.20
2022-10-10T18:54:18.109Z,14.10
2022-10-10T18:56:49.528Z,14.20
2022-10-10T18:59:22.296Z,14.10
2022-10-10T19:01:52.641Z,14.10
2022-10-10T19:04:23.253Z,14.10
2022-10-10T19:06:57.484Z,14.10
2022-10-10T19:09:27.865Z,14.00
2022-10-10T19:11:56.531Z,14.00
2022-10-10T19:14:25.187Z,13.90
2022-10-10T19:16:53.825Z,14.00
2022-10-10T19:19:22.842Z,14.00
2022-10-10T19:21:52.989Z,14.10
2022-10-10T19:24:22.520Z,14.10
2022-10-10T19:26:54.894Z,14.10
2022-10-10T19:29:24.661Z,14.10
2022-10-10T19:31:53.535Z,14.10
2022-10-10T19:34:22.433Z,14.10
2022-10-10T19:36:52.496Z,14.00
2022-10-10T19:39:21.472Z,14.00
2022-10-10T19:41:50.158Z,13.80
2022-10-10T19:44:18.918Z,13.80
2022-10-10T19:46:47.488Z,13.70
2022-10-10T19:49:16.060Z,13.70
2022-10-10T19:51:44.615Z,13.60
2022-10-10T19:54:14.644Z,13.70
2022-10-10T19:56:43.272Z,13.70
2022-10-10T19:59:11.870Z,13.70
2022-10-10T20:01:40.643Z,13.70
2022-10-10T20:04:09.281Z,13.70
2022-10-10T20:06:37.972Z,13.70
2022-10-10T20:09:10.628Z,13.80
2022-10-10T20:11:41.546Z,13.80
2022-10-10T20:14:10.810Z,13.80
2022-10-10T20:16:39.510Z,13.80
2022-10-10T20:19:08.699Z,13.80
2022-10-10T20:21:37.354Z,13.70
2022-10-10T20:24:09.971Z,13.70
2022-10-10T20:26:40.722Z,13.70
2022-10-10T20:29:10.137Z,13.70
2022-10-10T20:31:39.477Z,13.70
2022-10-10T20:34:08.587Z,13.60
2022-10-10T20:36:39.183Z,13.60
2022-10-10T20:39:10.758Z,13.60
2022-10-10T20:41:42.721Z,13.60
2022-10-10T20:44:15.800Z,13.60
2022-10-10T20:46:46.821Z,13.60
2022-10-10T20:49:19.705Z,13.50
2022-10-10T20:51:51.030Z,13.60
2022-10-10T20:54:22.171Z,13.50
2022-10-10T20:56:52.208Z,13.50
2022-10-10T20:59:22.535Z,13.60
2022-10-10T21:01:51.614Z,13.50
2022-10-10T21:04:20.392Z,13.50
2022-10-10T21:06:49.039Z,13.40
2022-10-10T21:09:17.736Z,13.40
2022-10-10T21:11:50.052Z,13.40
2022-10-10T21:14:21.026Z,13.50
2022-10-10T21:16:50.702Z,13.40
2022-10-10T21:19:19.242Z,13.40
2022-10-10T21:21:48.226Z,13.40
2022-10-10T21:24:16.801Z,13.40
2022-10-10T21:26:45.573Z,13.40
2022-10-10T21:29:14.164Z,13.30
2022-10-10T21:31:44.711Z,13.20
2022-10-10T21:34:18.811Z,13.20
2022-10-10T21:36:47.854Z,13.20
2022-10-10T21:39:16.796Z,13.20
2022-10-10T21:41:45.379Z,13.30
2022-10-10T21:44:15.877Z,13.30
2022-10-10T21:46:45.939Z,13.30
2022-10-10T21:49:15.890Z,13.30
2022-10-10T21:51:46.632Z,13.20
2022-10-10T21:54:15.895Z,13.20
2022-10-10T21:56:44.518Z,13.20
2022-10-10T21:59:13.384Z,13.20
2022-10-10T22:01:42.746Z,13.00
2022-10-10T22:04:12.779Z,13.00
2022-10-10T22:06:41.614Z,13.10
2022-10-10T22:09:10.305Z,13.00
2022-10-10T22:11:38.856Z,13.00
2022-10-10T22:14:07.487Z,12.90
2022-10-10T22:16:37.239Z,12.80
2022-10-10T22:19:06.883Z,12.90
2022-10-10T22:21:36.977Z,13.00
2022-10-10T22:24:09.117Z,12.90
2022-10-10T22:26:38.607Z,12.80
2022-10-10T22:29:07.266Z,12.90
2022-10-10T22:31:37.885Z,13.00
2022-10-10T22:34:08.108Z,12.90
2022-10-10T22:36:38.223Z,12.70
2022-10-10T22:39:11.063Z,12.70
2022-10-10T22:41:39.957Z,12.80
2022-10-10T22:44:08.828Z,12.90
2022-10-10T22:46:37.931Z,12.60
2022-10-10T22:49:06.661Z,12.70
2022-10-10T22:51:35.348Z,12.70
2022-10-10T22:54:05.804Z,12.70
2022-10-10T22:56:34.609Z,12.70
2022-10-10T22:59:03.225Z,12.70
2022-10-10T23:01:31.997Z,12.80
2022-10-10T23:04:09.247Z,12.80
2022-10-10T23:06:38.456Z,12.50
2022-10-10T23:09:08.765Z,12.60
2022-10-10T23:11:37.548Z,12.70
2022-10-10T23:14:06.968Z,12.80
2022-10-10T23:16:40.382Z,12.80
2022-10-10T23:19:09.409Z,12.80
2022-10-10T23:21:38.001Z,12.70
2022-10-10T23:24:08.541Z,12.50
2022-10-10T23:26:37.132Z,12.60
2022-10-10T23:29:05.695Z,12.50
2022-10-10T23:31:35.579Z,12.60
2022-10-10T23:34:04.319Z,12.70
2022-10-10T23:36:32.904Z,12.70
2022-10-10T23:39:02.911Z,12.70
2022-10-10T23:41:34.453Z,12.50
2022-10-10T23:44:03.053Z,12.40
2022-10-10T23:46:31.644Z,12.40
2022-10-10T23:49:00.250Z,12.40
2022-10-10T23:51:29.635Z,12.40
2022-10-10T23:53:58.267Z,12.40
2022-10-10T23:56:26.904Z,12.40
2022-10-10T23:58:56.846Z,12.40
